createdAt,value
2022-12-29T00:01:15.448Z,7.80
2022-12-29T00:03:44.083Z,7.75
2022-12-29T00:06:12.804Z,7.74
2022-12-29T00:08:41.787Z,7.73
2022-12-29T00:11:13.798Z,7.69
2022-12-29T00:13:59.737Z,7.70
2022-12-29T00:16:28.700Z,7.69
2022-12-29T00:18:57.354Z,7.67
2022-12-29T00:21:44.514Z,7.66
2022-12-29T00:24:33.609Z,7.63
2022-12-29T00:27:30.051Z,7.59
2022-12-29T00:30:16.761Z,7.57
2022-12-29T00:33:04.101Z,7.56
2022-12-29T00:35:36.131Z,7.57
2022-12-29T00:38:21.159Z,7.59
2022-12-29T00:41:07.041Z,7.59
2022-12-29T00:43:54.965Z,7.59
2022-12-29T00:46:23.658Z,7.58
2022-12-29T00:49:09.729Z,7.62
2022-12-29T00:51:38.385Z,7.64
2022-12-29T00:54:07.257Z,7.66
2022-12-29T00:56:35.939Z,7.69
2022-12-29T00:59:07.216Z,7.70
2022-12-29T01:01:36.308Z,7.70
2022-12-29T01:04:05.682Z,7.71
2022-12-29T01:06:35.037Z,7.74
2022-12-29T01:09:21.449Z,7.74
2022-12-29T01:11:50.211Z,7.80
2022-12-29T01:14:20.712Z,7.87
2022-12-29T01:16:49.676Z,7.86
2022-12-29T01:19:19.910Z,7.90
2022-12-29T01:21:49.340Z,7.94
2022-12-29T01:24:18.775Z,7.93
2022-12-29T01:26:49.426Z,7.96
2022-12-29T01:29:20.359Z,7.94
2022-12-29T01:31:50.663Z,7.98
2022-12-29T01:34:19.954Z,7.99
2022-12-29T01:36:48.612Z,8.06
2022-12-29T01:39:17.241Z,8.07
2022-12-29T01:41:46.066Z,8.15
2022-12-29T01:44:53.622Z,8.23
2022-12-29T01:47:31.476Z,8.29
2022-12-29T01:50:03.565Z,8.33
2022-12-29T01:52:35.649Z,8.35
2022-12-29T01:55:05.400Z,8.48
2022-12-29T01:57:36.970Z,8.53
2022-12-29T02:00:09.923Z,8.60
2022-12-29T02:02:41.821Z,8.64
2022-12-29T02:05:13.834Z,8.66
2022-12-29T02:07:42.506Z,8.64
2022-12-29T02:10:13.683Z,8.64
2022-12-29T02:12:43.507Z,8.63
2022-12-29T02:15:13.689Z,8.60
2022-12-29T02:17:54.276Z,8.64
2022-12-29T02:21:01.849Z,8.61
2022-12-29T02:23:45.262Z,8.63
2022-12-29T02:26:41.213Z,8.64
2022-12-29T02:29:36.435Z,8.64
2022-12-29T02:32:09.594Z,8.68
2022-12-29T02:34:48.332Z,8.66
2022-12-29T02:37:22.074Z,8.74
2022-12-29T02:39:54.522Z,8.71
2022-12-29T02:42:27.939Z,8.81
2022-12-29T02:44:59.637Z,8.84
2022-12-29T02:47:36.991Z,8.86
2022-12-29T02:50:10.460Z,8.93
2022-12-29T02:52:41.201Z,8.98
2022-12-29T02:55:09.825Z,8.97
2022-12-29T02:57:38.615Z,8.98
2022-12-29T03:00:10.725Z,9.00
2022-12-29T03:02:53.852Z,9.04
2022-12-29T03:05:37.235Z,9.12
2022-12-29T03:08:12.934Z,9.17
2022-12-29T03:10:47.481Z,9.21
2022-12-29T03:13:41.003Z,9.21
2022-12-29T03:16:16.472Z,9.29
2022-12-29T03:18:53.935Z,9.34
2022-12-29T03:21:47.417Z,9.39
2022-12-29T03:24:18.757Z,9.48
2022-12-29T03:26:50.597Z,9.50
2022-12-29T03:29:21.282Z,9.51
2022-12-29T03:31:51.783Z,9.55
2022-12-29T03:34:23.496Z,9.62
2022-12-29T03:36:55.200Z,9.62
2022-12-29T03:39:26.630Z,9.68
2022-12-29T03:42:03.987Z,9.69
2022-12-29T03:44:37.731Z,9.65
2022-12-29T03:47:07.215Z,9.74
2022-12-29T03:49:37.643Z,9.79
2022-12-29T03:52:07.327Z,9.78
2022-12-29T03:54:40.668Z,9.78
2022-12-29T03:57:09.022Z,9.86
2022-12-29T03:59:53.797Z,9.84
2022-12-29T04:02:22.281Z,9.92
2022-12-29T04:04:52.135Z,9.93
2022-12-29T04:07:20.459Z,9.89
2022-12-29T04:09:48.967Z,9.93
2022-12-29T04:12:22.985Z,9.93
2022-12-29T04:14:51.292Z,9.92
2022-12-29T04:17:20.165Z,9.97
2022-12-29T04:19:52.395Z,10.00
2022-12-29T04:22:20.728Z,10.01
2022-12-29T04:24:48.959Z,10.00
2022-12-29T04:27:17.205Z,10.08
2022-12-29T04:30:17.785Z,10.09
2022-12-29T04:33:05.054Z,10.20
2022-12-29T04:35:34.878Z,10.21
2022-12-29T04:38:03.705Z,10.16
2022-12-29T04:40:32.206Z,10.18
2022-12-29T04:43:00.518Z,10.18
2022-12-29T04:45:29.208Z,10.17
2022-12-29T04:48:12.346Z,10.20
2022-12-29T04:51:00.520Z,10.24
2022-12-29T04:53:34.384Z,10.28
2022-12-29T04:56:03.054Z,10.33
2022-12-29T04:58:31.439Z,10.35
2022-12-29T05:01:00.942Z,10.40
2022-12-29T05:03:32.034Z,10.41
2022-12-29T05:06:02.379Z,10.36
2022-12-29T05:08:30.771Z,10.36
2022-12-29T05:11:01.533Z,10.38
2022-12-29T05:13:29.756Z,10.36
2022-12-29T05:15:59.240Z,10.36
2022-12-29T05:18:27.586Z,10.36
2022-12-29T05:20:55.916Z,10.40
2022-12-29T05:23:26.787Z,10.39
2022-12-29T05:26:02.607Z,10.40
2022-12-29T05:28:35.937Z,10.45
2022-12-29T05:31:13.381Z,10.48
2022-12-29T05:33:44.937Z,10.55
2022-12-29T05:36:14.976Z,10.57
2022-12-29T05:38:51.918Z,10.52
2022-12-29T05:41:20.622Z,10.55
2022-12-29T05:44:07.480Z,10.49
2022-12-29T05:46:45.279Z,10.45
2022-12-29T05:49:23.092Z,10.48
2022-12-29T05:52:07.850Z,10.49
2022-12-29T05:54:38.460Z,10.46
2022-12-29T05:57:13.464Z,10.46
2022-12-29T05:59:44.167Z,10.46
2022-12-29T06:02:13.032Z,10.53
2022-12-29T06:04:42.348Z,10.58
2022-12-29T06:07:10.985Z,10.55
2022-12-29T06:09:45.638Z,10.55
2022-12-29T06:12:14.741Z,10.55
2022-12-29T06:14:45.711Z,10.53
2022-12-29T06:17:14.362Z,10.57
2022-12-29T06:19:43.266Z,10.60
2022-12-29T06:22:13.203Z,10.62
2022-12-29T06:24:44.650Z,10.65
2022-12-29T06:27:14.913Z,10.63
2022-12-29T06:29:43.866Z,10.63
2022-12-29T06:32:12.639Z,10.67
2022-12-29T06:34:46.277Z,10.68
2022-12-29T06:37:15.710Z,10.65
2022-12-29T06:39:45.665Z,10.60
2022-12-29T06:42:16.381Z,10.56
2022-12-29T06:44:51.120Z,10.43
2022-12-29T06:47:19.837Z,10.38
2022-12-29T06:49:48.760Z,10.36
2022-12-29T06:52:17.341Z,10.31
2022-12-29T06:54:47.539Z,10.27
2022-12-29T06:57:16.111Z,10.20
2022-12-29T06:59:45.127Z,10.22
2022-12-29T07:02:15.538Z,10.19
2022-12-29T07:04:44.454Z,10.18
2022-12-29T07:07:13.223Z,10.13
2022-12-29T07:09:41.879Z,10.02
2022-12-29T07:12:11.874Z,10.00
2022-12-29T07:14:43.178Z,9.96
2022-12-29T07:17:12.116Z,9.91
2022-12-29T07:19:40.866Z,9.90
2022-12-29T07:22:09.741Z,9.92
2022-12-29T07:24:38.482Z,9.88
2022-12-29T07:27:07.494Z,9.93
2022-12-29T07:29:39.259Z,9.91
2022-12-29T07:32:07.969Z,9.93
2022-12-29T07:34:36.697Z,9.92
2022-12-29T07:37:05.328Z,9.92
2022-12-29T07:39:34.031Z,9.92
2022-12-29T07:42:05.142Z,9.91
2022-12-29T07:44:43.334Z,9.93
2022-12-29T07:47:18.478Z,9.98
2022-12-29T07:49:47.328Z,10.00
2022-12-29T07:52:16.039Z,9.96
2022-12-29T07:54:44.607Z,10.02
2022-12-29T07:57:13.356Z,10.00
2022-12-29T07:59:43.399Z,10.00
2022-12-29T08:02:13.390Z,10.07
2022-12-29T08:04:42.205Z,10.12
2022-12-29T08:07:10.856Z,10.17
2022-12-29T08:09:39.502Z,10.17
2022-12-29T08:12:10.105Z,10.18
2022-12-29T08:14:38.971Z,10.19
2022-12-29T08:17:08.973Z,10.23
2022-12-29T08:19:37.756Z,10.28
2022-12-29T08:22:06.394Z,10.31
2022-12-29T08:24:35.100Z,10.35
2022-12-29T08:27:13.100Z,10.42
2022-12-29T08:29:44.756Z,10.41
2022-12-29T08:32:15.202Z,10.43
2022-12-29T08:34:43.993Z,10.42
2022-12-29T08:37:12.769Z,10.43
2022-12-29T08:39:41.937Z,10.45
2022-12-29T08:42:10.595Z,10.49
2022-12-29T08:44:39.361Z,10.47
2022-12-29T08:47:09.072Z,10.49
2022-12-29T08:49:39.259Z,10.50
2022-12-29T08:52:08.242Z,10.47
2022-12-29T08:54:36.964Z,10.48
2022-12-29T08:57:05.809Z,10.49
2022-12-29T08:59:40.344Z,10.52
2022-12-29T09:02:12.604Z,10.62
2022-12-29T09:04:43.178Z,10.60
2022-12-29T09:07:11.894Z,10.59
2022-12-29T09:09:40.581Z,10.56
2022-12-29T09:12:09.385Z,10.58
2022-12-29T09:14:37.996Z,10.62
2022-12-29T09:17:24.405Z,10.65
2022-12-29T09:19:54.485Z,10.66
2022-12-29T09:22:23.196Z,10.68
2022-12-29T09:24:52.261Z,10.71
2022-12-29T09:27:21.036Z,10.68
2022-12-29T09:29:49.787Z,10.73
2022-12-29T09:32:19.769Z,10.72
2022-12-29T09:34:48.587Z,10.78
2022-12-29T09:37:18.536Z,10.85
2022-12-29T09:39:53.901Z,10.93
2022-12-29T09:42:27.710Z,11.03
2022-12-29T09:45:05.590Z,11.08
2022-12-29T09:47:34.446Z,11.13
2022-12-29T09:50:06.010Z,11.15
2022-12-29T09:52:38.875Z,11.20
2022-12-29T09:55:14.065Z,11.26
2022-12-29T09:57:46.521Z,11.34
2022-12-29T10:00:18.598Z,11.37
2022-12-29T10:02:52.226Z,11.41
2022-12-29T10:05:35.173Z,11.43
2022-12-29T10:08:25.331Z,11.41
2022-12-29T10:10:58.986Z,11.45
2022-12-29T10:13:44.703Z,11.45
2022-12-29T10:16:20.614Z,11.48
2022-12-29T10:19:33.142Z,11.49
2022-12-29T10:22:18.174Z,11.50
2022-12-29T10:24:51.564Z,11.56
2022-12-29T10:27:21.140Z,11.50
2022-12-29T10:29:55.330Z,11.56
2022-12-29T10:32:32.184Z,11.63
2022-12-29T10:35:06.671Z,11.61
2022-12-29T10:37:42.311Z,11.63
2022-12-29T10:40:26.605Z,11.65
2022-12-29T10:42:57.165Z,11.65
2022-12-29T10:45:30.895Z,11.71
2022-12-29T10:48:04.198Z,11.69
2022-12-29T10:50:32.615Z,11.82
2022-12-29T10:53:05.787Z,11.87
2022-12-29T10:55:38.637Z,11.94
2022-12-29T10:58:08.656Z,11.97
2022-12-29T11:00:37.063Z,12.10
2022-12-29T11:03:28.857Z,12.13
2022-12-29T11:06:03.554Z,12.26
2022-12-29T11:08:37.876Z,12.32
2022-12-29T11:11:10.765Z,12.35
2022-12-29T11:13:52.198Z,12.40
2022-12-29T11:16:31.626Z,12.43
2022-12-29T11:19:00.805Z,12.42
2022-12-29T11:21:34.861Z,12.47
2022-12-29T11:24:05.237Z,12.48
2022-12-29T11:26:35.808Z,12.48
2022-12-29T11:29:39.643Z,12.48
2022-12-29T11:32:14.821Z,12.51
2022-12-29T11:34:43.393Z,12.59
2022-12-29T11:37:15.527Z,12.63
2022-12-29T11:39:54.298Z,12.60
2022-12-29T11:42:38.268Z,12.59
2022-12-29T11:45:15.634Z,12.55
2022-12-29T11:47:47.126Z,12.56
2022-12-29T11:50:22.716Z,12.52
2022-12-29T11:53:00.222Z,12.49
2022-12-29T11:55:30.080Z,12.29
2022-12-29T11:58:05.290Z,11.98
2022-12-29T12:00:40.562Z,11.81
2022-12-29T12:03:18.709Z,11.62
2022-12-29T12:05:53.589Z,11.47
2022-12-29T12:08:35.891Z,11.36
2022-12-29T12:11:12.161Z,11.26
2022-12-29T12:13:59.154Z,11.24
2022-12-29T12:16:39.587Z,11.26
2022-12-29T12:19:22.609Z,11.26
2022-12-29T12:21:56.843Z,11.23
2022-12-29T12:24:43.372Z,11.24
2022-12-29T12:27:18.607Z,11.32
2022-12-29T12:29:57.527Z,11.39
2022-12-29T12:32:38.724Z,11.40
2022-12-29T12:35:09.107Z,11.43
2022-12-29T12:38:18.274Z,11.50
2022-12-29T12:41:09.353Z,11.61
2022-12-29T12:43:47.594Z,11.69
2022-12-29T12:47:13.134Z,11.79
2022-12-29T12:50:17.785Z,11.76
2022-12-29T12:53:02.426Z,11.92
2022-12-29T12:55:51.061Z,12.21
2022-12-29T12:58:31.159Z,12.40
2022-12-29T13:01:16.960Z,12.30
2022-12-29T13:04:10.981Z,12.23
2022-12-29T13:06:50.206Z,12.36
2022-12-29T13:09:47.005Z,12.64
2022-12-29T13:12:31.897Z,12.81
2022-12-29T13:15:14.533Z,12.78
2022-12-29T13:17:52.501Z,12.83
2022-12-29T13:20:37.711Z,12.94
2022-12-29T13:23:10.379Z,12.98
2022-12-29T13:25:47.632Z,12.85
2022-12-29T13:28:24.518Z,12.66
2022-12-29T13:31:02.908Z,12.47
2022-12-29T13:33:41.683Z,12.32
2022-12-29T13:36:23.906Z,12.17
2022-12-29T13:39:04.251Z,12.08
2022-12-29T13:41:36.779Z,12.00
2022-12-29T13:44:07.618Z,11.92
2022-12-29T13:46:41.337Z,11.92
2022-12-29T13:49:16.544Z,11.86
2022-12-29T13:51:52.791Z,11.86
2022-12-29T13:54:34.446Z,11.85
2022-12-29T13:57:10.647Z,11.83
2022-12-29T13:59:48.223Z,11.80
2022-12-29T14:02:28.679Z,11.83
2022-12-29T14:05:03.028Z,11.80
2022-12-29T14:07:40.069Z,11.76
2022-12-29T14:10:28.745Z,11.74
2022-12-29T14:13:05.703Z,11.72
2022-12-29T14:15:34.415Z,11.69
2022-12-29T14:18:13.316Z,11.68
2022-12-29T14:20:54.511Z,11.72
2022-12-29T14:23:40.744Z,11.71
2022-12-29T14:26:16.294Z,11.69
2022-12-29T14:28:47.044Z,11.67
2022-12-29T14:31:41.548Z,11.68
2022-12-29T14:34:32.144Z,11.80
2022-12-29T14:37:03.339Z,11.93
2022-12-29T14:39:42.107Z,11.92
2022-12-29T14:42:18.613Z,11.95
2022-12-29T14:44:50.697Z,11.97
2022-12-29T14:47:24.934Z,11.93
2022-12-29T14:49:54.419Z,11.89
2022-12-29T14:52:28.109Z,11.80
2022-12-29T14:55:01.377Z,11.79
2022-12-29T14:57:35.346Z,11.74
2022-12-29T15:00:17.438Z,11.73
2022-12-29T15:02:51.891Z,11.71
2022-12-29T15:05:33.025Z,11.69
2022-12-29T15:08:03.003Z,11.65
2022-12-29T15:10:43.091Z,11.62
2022-12-29T15:13:19.831Z,11.65
2022-12-29T15:15:48.709Z,11.62
2022-12-29T15:18:26.528Z,11.69
2022-12-29T15:20:59.421Z,11.69
2022-12-29T15:23:28.584Z,11.79
2022-12-29T15:26:00.663Z,11.79
2022-12-29T15:28:39.177Z,11.77
2022-12-29T15:31:13.919Z,11.71
2022-12-29T15:33:45.740Z,11.67
2022-12-29T15:36:16.770Z,11.60
2022-12-29T15:38:45.124Z,11.61
2022-12-29T15:41:29.026Z,11.60
2022-12-29T15:44:11.587Z,11.62
2022-12-29T15:46:40.640Z,11.60
2022-12-29T15:49:10.765Z,11.67
2022-12-29T15:51:40.980Z,11.34
2022-12-29T15:54:19.406Z,11.00
2022-12-29T15:56:50.852Z,10.73
2022-12-29T15:59:31.671Z,10.58
2022-12-29T16:02:05.904Z,10.58
2022-12-29T16:04:54.354Z,10.49
2022-12-29T16:07:29.469Z,10.45
2022-12-29T16:10:00.049Z,10.42
2022-12-29T16:12:35.327Z,10.38
2022-12-29T16:15:06.795Z,10.42
2022-12-29T16:17:44.117Z,10.43
2022-12-29T16:20:21.330Z,10.46
2022-12-29T16:22:53.845Z,10.31
2022-12-29T16:25:28.016Z,10.24
2022-12-29T16:27:57.825Z,10.22
2022-12-29T16:30:33.521Z,10.24
2022-12-29T16:33:04.908Z,10.28
2022-12-29T16:35:47.315Z,10.30
2022-12-29T16:38:18.230Z,10.30
2022-12-29T16:40:56.676Z,10.29
2022-12-29T16:43:29.280Z,10.26
2022-12-29T16:46:27.213Z,10.17
2022-12-29T16:48:57.521Z,10.14
2022-12-29T16:51:34.433Z,10.06
2022-12-29T16:54:04.012Z,9.99
2022-12-29T16:56:37.400Z,10.02
2022-12-29T16:59:10.381Z,10.03
2022-12-29T17:01:40.109Z,10.05
2022-12-29T17:04:12.188Z,10.12
2022-12-29T17:06:40.735Z,10.07
2022-12-29T17:09:20.509Z,9.92
2022-12-29T17:12:01.592Z,9.81
2022-12-29T17:14:43.359Z,9.74
2022-12-29T17:17:20.355Z,9.66
2022-12-29T17:19:53.653Z,9.70
2022-12-29T17:22:26.482Z,9.73
2022-12-29T17:24:55.800Z,9.70
2022-12-29T17:27:29.681Z,9.69
2022-12-29T17:30:03.963Z,9.75
2022-12-29T17:32:33.855Z,9.78
2022-12-29T17:35:02.127Z,9.84
2022-12-29T17:37:35.505Z,9.71
2022-12-29T17:40:06.393Z,9.80
2022-12-29T17:42:39.796Z,9.81
2022-12-29T17:45:17.093Z,9.81
2022-12-29T17:47:45.645Z,9.80
2022-12-29T17:50:15.941Z,9.74
2022-12-29T17:52:46.334Z,9.69
2022-12-29T17:55:19.534Z,9.69
2022-12-29T17:57:48.495Z,9.59
2022-12-29T18:00:21.754Z,9.65
2022-12-29T18:02:50.485Z,9.59
2022-12-29T18:05:22.160Z,9.67
2022-12-29T18:07:52.128Z,9.65
2022-12-29T18:10:24.526Z,9.71
2022-12-29T18:12:55.132Z,9.69
2022-12-29T18:15:27.695Z,9.62
2022-12-29T18:18:00.793Z,9.55
2022-12-29T18:20:30.628Z,9.44
2022-12-29T18:22:59.781Z,9.35
2022-12-29T18:25:37.783Z,9.33
2022-12-29T18:28:06.205Z,9.22
2022-12-29T18:30:37.420Z,9.21
2022-12-29T18:33:06.286Z,9.17
2022-12-29T18:35:40.320Z,9.19
2022-12-29T18:38:08.980Z,9.21
2022-12-29T18:40:38.416Z,9.20
2022-12-29T18:43:06.811Z,9.27
2022-12-29T18:45:36.760Z,9.19
2022-12-29T18:48:05.862Z,9.12
2022-12-29T18:50:34.306Z,9.04
2022-12-29T18:53:04.161Z,9.00
2022-12-29T18:55:33.753Z,8.99
2022-12-29T18:58:02.099Z,8.91
2022-12-29T19:00:30.491Z,8.93
2022-12-29T19:03:00.268Z,8.94
2022-12-29T19:05:32.061Z,8.87
2022-12-29T19:08:00.431Z,8.88
2022-12-29T19:10:28.981Z,8.79
2022-12-29T19:12:57.438Z,8.65
2022-12-29T19:15:28.351Z,8.61
2022-12-29T19:18:41.581Z,8.55
2022-12-29T19:20:51.677Z,8.57
2022-12-29T19:23:22.168Z,8.54
2022-12-29T19:25:52.356Z,8.51
2022-12-29T19:28:24.198Z,8.53
2022-12-29T19:30:57.203Z,8.50
2022-12-29T19:33:28.261Z,8.45
2022-12-29T19:36:01.600Z,8.41
2022-12-29T19:38:30.441Z,8.40
2022-12-29T19:40:58.979Z,8.36
2022-12-29T19:43:27.333Z,8.36
2022-12-29T19:45:55.539Z,8.37
2022-12-29T19:48:23.862Z,8.31
2022-12-29T19:50:53.444Z,8.30
2022-12-29T19:53:21.993Z,8.32
2022-12-29T19:55:50.285Z,8.31
2022-12-29T19:58:18.963Z,8.33
2022-12-29T20:00:47.405Z,8.32
2022-12-29T20:03:15.719Z,8.29
2022-12-29T20:05:49.821Z,8.21
2022-12-29T20:08:19.540Z,8.20
2022-12-29T20:10:58.023Z,8.15
2022-12-29T20:13:26.396Z,8.22
2022-12-29T20:16:00.039Z,8.15
2022-12-29T20:18:29.403Z,8.12
2022-12-29T20:21:03.825Z,8.09
2022-12-29T20:23:34.685Z,8.09
2022-12-29T20:26:03.373Z,8.05
2022-12-29T20:28:31.750Z,8.07
2022-12-29T20:31:03.245Z,8.02
2022-12-29T20:33:33.917Z,7.99
2022-12-29T20:36:08.122Z,7.95
2022-12-29T20:38:38.428Z,7.97
2022-12-29T20:41:06.898Z,7.98
2022-12-29T20:43:35.573Z,7.93
2022-12-29T20:46:04.321Z,7.94
2022-12-29T20:48:34.229Z,7.92
2022-12-29T20:51:02.464Z,7.85
2022-12-29T20:53:33.388Z,7.80
2022-12-29T20:56:06.661Z,7.76
2022-12-29T20:58:47.201Z,7.72
2022-12-29T21:01:26.675Z,7.69
2022-12-29T21:03:55.190Z,7.66
2022-12-29T21:06:23.674Z,7.69
2022-12-29T21:08:54.488Z,7.72
2022-12-29T21:11:24.452Z,7.65
2022-12-29T21:13:53.310Z,7.63
2022-12-29T21:16:22.191Z,7.59
2022-12-29T21:18:50.978Z,7.54
2022-12-29T21:21:21.523Z,7.48
2022-12-29T21:23:50.472Z,7.48
2022-12-29T21:26:21.864Z,7.48
2022-12-29T21:28:51.865Z,7.41
2022-12-29T21:31:27.720Z,7.38
2022-12-29T21:33:57.160Z,7.32
2022-12-29T21:36:26.103Z,7.31
2022-12-29T21:38:55.061Z,7.33
2022-12-29T21:41:24.076Z,7.29
2022-12-29T21:44:12.270Z,7.25
2022-12-29T21:46:44.003Z,7.25
2022-12-29T21:49:12.344Z,7.26
2022-12-29T21:51:54.270Z,7.25
2022-12-29T21:54:44.730Z,7.22
2022-12-29T21:57:35.659Z,7.21
2022-12-29T22:00:24.082Z,7.22
2022-12-29T22:03:16.479Z,7.17
2022-12-29T22:06:06.316Z,7.17
2022-12-29T22:08:52.284Z,7.20
2022-12-29T22:11:38.146Z,7.17
2022-12-29T22:14:06.687Z,7.17
2022-12-29T22:16:36.369Z,7.15
2022-12-29T22:19:05.092Z,7.19
2022-12-29T22:21:33.343Z,7.16
2022-12-29T22:24:01.618Z,7.22
2022-12-29T22:26:30.198Z,7.20
2022-12-29T22:28:58.643Z,7.18
2022-12-29T22:31:29.947Z,7.22
2022-12-29T22:34:04.620Z,7.23
2022-12-29T22:36:33.728Z,7.15
2022-12-29T22:39:02.238Z,7.16
2022-12-29T22:41:30.569Z,7.14
2022-12-29T22:43:58.820Z,7.09
2022-12-29T22:46:27.271Z,7.07
2022-12-29T22:48:57.548Z,7.01
2022-12-29T22:51:27.246Z,7.05
2022-12-29T22:53:55.680Z,7.03
2022-12-29T22:56:23.942Z,7.00
2022-12-29T22:58:52.456Z,7.00
2022-12-29T23:01:22.469Z,7.00
2022-12-29T23:03:51.427Z,6.96
2022-12-29T23:06:20.882Z,6.95
2022-12-29T23:08:50.625Z,7.01
2022-12-29T23:11:18.940Z,7.00
2022-12-29T23:13:47.438Z,6.97
2022-12-29T23:16:16.999Z,6.96
2022-12-29T23:18:47.850Z,6.94
2022-12-29T23:21:17.099Z,6.94
2022-12-29T23:23:56.118Z,6.92
2022-12-29T23:26:28.712Z,6.93
2022-12-29T23:29:00.500Z,6.92
2022-12-29T23:31:29.956Z,6.92
2022-12-29T23:33:58.830Z,6.94
2022-12-29T23:36:27.360Z,6.92
2022-12-29T23:38:55.717Z,6.90
2022-12-29T23:41:26.305Z,6.89
2022-12-29T23:43:54.893Z,6.90
2022-12-29T23:46:25.571Z,6.94
2022-12-29T23:48:54.267Z,6.94
2022-12-29T23:51:23.199Z,6.94
2022-12-29T23:53:51.663Z,6.92
2022-12-29T23:56:22.587Z,6.89
2022-12-29T23:58:53.173Z,6.88
